sensor_id;sensor_type;location;lat;lon;timestamp;P1;durP1;ratioP1;P2;durP2;ratioP2
8291;SDS011;4184;42.724;23.308;2022-08-26T00:00:51;8.17;;;3.20;;
8291;SDS011;4184;42.724;23.308;2022-08-26T00:03:19;6.73;;;3.10;;
8291;SDS011;4184;42.724;23.308;2022-08-26T00:05:48;7.33;;;3.30;;
8291;SDS011;4184;42.724;23.308;2022-08-26T00:08:16;3.23;;;2.80;;
8291;SDS011;4184;42.724;23.308;2022-08-26T00:10:46;6.67;;;3.17;;
8291;SDS011;4184;42.724;23.308;2022-08-26T00:13:14;5.87;;;3.77;;
8291;SDS011;4184;42.724;23.308;2022-08-26T00:15:42;7.43;;;3.70;;
8291;SDS011;4184;42.724;23.308;2022-08-26T00:18:10;8.17;;;3.40;;
8291;SDS011;4184;42.724;23.308;2022-08-26T00:20:39;5.70;;;3.40;;
8291;SDS011;4184;42.724;23.308;2022-08-26T00:23:06;4.83;;;3.13;;
8291;SDS011;4184;42.724;23.308;2022-08-26T00:25:34;7.23;;;3.27;;
8291;SDS011;4184;42.724;23.308;2022-08-26T00:28:04;7.47;;;3.40;;
8291;SDS011;4184;42.724;23.308;2022-08-26T00:30:32;8.10;;;3.20;;
8291;SDS011;4184;42.724;23.308;2022-08-26T00:33:01;8.37;;;3.50;;
8291;SDS011;4184;42.724;23.308;2022-08-26T00:35:30;7.60;;;3.43;;
8291;SDS011;4184;42.724;23.308;2022-08-26T00:37:59;7.50;;;3.70;;
8291;SDS011;4184;42.724;23.308;2022-08-26T00:40:29;8.03;;;3.47;;
8291;SDS011;4184;42.724;23.308;2022-08-26T00:42:59;8.43;;;3.50;;
8291;SDS011;4184;42.724;23.308;2022-08-26T00:45:29;8.93;;;3.17;;
8291;SDS011;4184;42.724;23.308;2022-08-26T00:48:05;7.93;;;3.40;;
8291;SDS011;4184;42.724;23.308;2022-08-26T00:50:34;6.17;;;3.53;;
8291;SDS011;4184;42.724;23.308;2022-08-26T00:53:05;8.40;;;3.33;;
8291;SDS011;4184;42.724;23.308;2022-08-26T00:55:46;9.87;;;3.40;;
8291;SDS011;4184;42.724;23.308;2022-08-26T00:58:17;6.50;;;3.30;;
8291;SDS011;4184;42.724;23.308;2022-08-26T01:00:47;6.60;;;3.43;;
8291;SDS011;4184;42.724;23.308;2022-08-26T01:03:15;6.97;;;3.27;;
8291;SDS011;4184;42.724;23.308;2022-08-26T01:05:47;8.10;;;3.80;;
8291;SDS011;4184;42.724;23.308;2022-08-26T01:08:15;8.73;;;3.13;;
8291;SDS011;4184;42.724;23.308;2022-08-26T01:10:43;8.23;;;4.03;;
8291;SDS011;4184;42.724;23.308;2022-08-26T01:13:10;6.60;;;3.13;;
8291;SDS011;4184;42.724;23.308;2022-08-26T01:15:40;7.33;;;3.33;;
8291;SDS011;4184;42.724;23.308;2022-08-26T01:18:11;5.93;;;3.23;;
8291;SDS011;4184;42.724;23.308;2022-08-26T01:20:41;8.57;;;3.53;;
8291;SDS011;4184;42.724;23.308;2022-08-26T01:23:21;8.40;;;3.63;;
8291;SDS011;4184;42.724;23.308;2022-08-26T01:25:52;14.67;;;3.67;;
8291;SDS011;4184;42.724;23.308;2022-08-26T01:28:24;11.50;;;3.47;;
8291;SDS011;4184;42.724;23.308;2022-08-26T01:30:54;7.97;;;3.17;;
8291;SDS011;4184;42.724;23.308;2022-08-26T01:33:27;4.97;;;2.77;;
8291;SDS011;4184;42.724;23.308;2022-08-26T01:36:01;5.70;;;3.23;;
8291;SDS011;4184;42.724;23.308;2022-08-26T01:38:30;8.47;;;3.17;;
8291;SDS011;4184;42.724;23.308;2022-08-26T01:40:58;6.37;;;3.60;;
8291;SDS011;4184;42.724;23.308;2022-08-26T01:43:28;8.93;;;3.17;;
8291;SDS011;4184;42.724;23.308;2022-08-26T01:45:59;7.53;;;3.60;;
8291;SDS011;4184;42.724;23.308;2022-08-26T01:48:29;9.50;;;3.27;;
8291;SDS011;4184;42.724;23.308;2022-08-26T01:50:59;7.93;;;3.57;;
8291;SDS011;4184;42.724;23.308;2022-08-26T01:53:28;9.27;;;3.13;;
8291;SDS011;4184;42.724;23.308;2022-08-26T01:55:58;7.17;;;3.43;;
8291;SDS011;4184;42.724;23.308;2022-08-26T01:58:29;6.63;;;3.33;;
8291;SDS011;4184;42.724;23.308;2022-08-26T02:01:00;4.90;;;3.60;;
8291;SDS011;4184;42.724;23.308;2022-08-26T02:03:28;6.90;;;3.13;;
8291;SDS011;4184;42.724;23.308;2022-08-26T02:05:57;7.43;;;3.57;;
8291;SDS011;4184;42.724;23.308;2022-08-26T02:08:29;5.33;;;3.80;;
8291;SDS011;4184;42.724;23.308;2022-08-26T02:11:02;8.70;;;3.40;;
8291;SDS011;4184;42.724;23.308;2022-08-26T02:13:30;5.87;;;3.33;;
8291;SDS011;4184;42.724;23.308;2022-08-26T02:16:00;10.60;;;4.30;;
8291;SDS011;4184;42.724;23.308;2022-08-26T02:18:29;6.47;;;3.67;;
8291;SDS011;4184;42.724;23.308;2022-08-26T02:21:00;4.37;;;3.30;;
8291;SDS011;4184;42.724;23.308;2022-08-26T02:23:27;10.50;;;3.43;;
8291;SDS011;4184;42.724;23.308;2022-08-26T02:25:58;5.60;;;3.30;;
8291;SDS011;4184;42.724;23.308;2022-08-26T02:28:32;9.90;;;3.50;;
8291;SDS011;4184;42.724;23.308;2022-08-26T02:31:04;6.70;;;3.47;;
8291;SDS011;4184;42.724;23.308;2022-08-26T02:33:32;12.30;;;3.87;;
8291;SDS011;4184;42.724;23.308;2022-08-26T02:36:00;9.23;;;3.40;;
8291;SDS011;4184;42.724;23.308;2022-08-26T02:38:28;8.33;;;3.33;;
8291;SDS011;4184;42.724;23.308;2022-08-26T02:40:57;8.30;;;3.47;;
8291;SDS011;4184;42.724;23.308;2022-08-26T02:43:24;8.83;;;3.43;;
8291;SDS011;4184;42.724;23.308;2022-08-26T02:45:52;5.90;;;3.63;;
8291;SDS011;4184;42.724;23.308;2022-08-26T02:48:19;9.73;;;3.53;;
8291;SDS011;4184;42.724;23.308;2022-08-26T02:50:47;7.53;;;3.77;;
8291;SDS011;4184;42.724;23.308;2022-08-26T02:53:15;5.80;;;3.67;;
8291;SDS011;4184;42.724;23.308;2022-08-26T02:55:44;9.93;;;3.90;;
8291;SDS011;4184;42.724;23.308;2022-08-26T02:58:15;10.80;;;3.60;;
8291;SDS011;4184;42.724;23.308;2022-08-26T03:00:42;7.57;;;3.70;;
8291;SDS011;4184;42.724;23.308;2022-08-26T03:03:12;7.70;;;4.03;;
8291;SDS011;4184;42.724;23.308;2022-08-26T03:05:39;10.97;;;3.97;;
8291;SDS011;4184;42.724;23.308;2022-08-26T03:08:08;7.00;;;3.60;;
8291;SDS011;4184;42.724;23.308;2022-08-26T03:10:36;8.40;;;3.63;;
8291;SDS011;4184;42.724;23.308;2022-08-26T03:13:08;6.73;;;3.03;;
8291;SDS011;4184;42.724;23.308;2022-08-26T03:15:38;7.67;;;3.53;;
8291;SDS011;4184;42.724;23.308;2022-08-26T03:18:06;11.23;;;3.63;;
8291;SDS011;4184;42.724;23.308;2022-08-26T03:20:33;8.63;;;3.83;;
8291;SDS011;4184;42.724;23.308;2022-08-26T03:23:01;9.00;;;4.00;;
8291;SDS011;4184;42.724;23.308;2022-08-26T03:25:29;9.13;;;4.23;;
8291;SDS011;4184;42.724;23.308;2022-08-26T03:27:56;5.60;;;3.80;;
8291;SDS011;4184;42.724;23.308;2022-08-26T03:30:24;10.50;;;4.20;;
8291;SDS011;4184;42.724;23.308;2022-08-26T03:33:08;4.27;;;3.53;;
8291;SDS011;4184;42.724;23.308;2022-08-26T03:35:36;6.87;;;3.70;;
8291;SDS011;4184;42.724;23.308;2022-08-26T03:38:05;6.63;;;3.57;;
8291;SDS011;4184;42.724;23.308;2022-08-26T03:40:33;14.20;;;4.53;;
8291;SDS011;4184;42.724;23.308;2022-08-26T03:43:02;11.87;;;4.80;;
8291;SDS011;4184;42.724;23.308;2022-08-26T03:45:31;9.30;;;4.23;;
8291;SDS011;4184;42.724;23.308;2022-08-26T03:47:59;8.97;;;4.07;;
8291;SDS011;4184;42.724;23.308;2022-08-26T03:50:28;9.57;;;4.47;;
8291;SDS011;4184;42.724;23.308;2022-08-26T03:52:56;5.37;;;3.67;;
8291;SDS011;4184;42.724;23.308;2022-08-26T03:55:25;10.23;;;3.77;;
8291;SDS011;4184;42.724;23.308;2022-08-26T03:57:56;11.60;;;4.83;;
8291;SDS011;4184;42.724;23.308;2022-08-26T04:00:24;9.23;;;4.27;;
8291;SDS011;4184;42.724;23.308;2022-08-26T04:02:51;7.43;;;4.13;;
8291;SDS011;4184;42.724;23.308;2022-08-26T04:05:20;7.63;;;4.30;;
8291;SDS011;4184;42.724;23.308;2022-08-26T04:07:49;6.80;;;4.43;;
8291;SDS011;4184;42.724;23.308;2022-08-26T04:10:18;8.80;;;4.50;;
8291;SDS011;4184;42.724;23.308;2022-08-26T04:12:48;8.63;;;4.97;;
8291;SDS011;4184;42.724;23.308;2022-08-26T04:15:16;10.00;;;5.23;;
8291;SDS011;4184;42.724;23.308;2022-08-26T04:17:45;12.93;;;5.23;;
8291;SDS011;4184;42.724;23.308;2022-08-26T04:20:13;8.80;;;5.27;;
8291;SDS011;4184;42.724;23.308;2022-08-26T04:22:42;9.23;;;5.03;;
8291;SDS011;4184;42.724;23.308;2022-08-26T04:25:12;12.00;;;5.00;;
8291;SDS011;4184;42.724;23.308;2022-08-26T04:27:39;5.90;;;4.33;;
8291;SDS011;4184;42.724;23.308;2022-08-26T04:30:07;9.33;;;4.80;;
8291;SDS011;4184;42.724;23.308;2022-08-26T04:32:36;9.50;;;4.47;;
8291;SDS011;4184;42.724;23.308;2022-08-26T04:35:04;10.20;;;4.57;;
8291;SDS011;4184;42.724;23.308;2022-08-26T04:37:32;9.83;;;4.73;;
8291;SDS011;4184;42.724;23.308;2022-08-26T04:39:59;8.07;;;4.00;;
8291;SDS011;4184;42.724;23.308;2022-08-26T04:42:28;8.83;;;3.97;;
8291;SDS011;4184;42.724;23.308;2022-08-26T04:44:57;10.73;;;4.20;;
8291;SDS011;4184;42.724;23.308;2022-08-26T04:47:25;10.23;;;4.33;;
8291;SDS011;4184;42.724;23.308;2022-08-26T04:49:53;7.33;;;4.10;;
8291;SDS011;4184;42.724;23.308;2022-08-26T04:52:21;7.27;;;4.27;;
8291;SDS011;4184;42.724;23.308;2022-08-26T04:54:49;6.87;;;3.53;;
8291;SDS011;4184;42.724;23.308;2022-08-26T04:57:17;11.27;;;4.27;;
8291;SDS011;4184;42.724;23.308;2022-08-26T04:59:46;9.00;;;3.90;;
8291;SDS011;4184;42.724;23.308;2022-08-26T05:02:13;8.83;;;3.97;;
8291;SDS011;4184;42.724;23.308;2022-08-26T05:04:41;10.87;;;4.70;;
8291;SDS011;4184;42.724;23.308;2022-08-26T05:07:08;10.50;;;4.83;;
8291;SDS011;4184;42.724;23.308;2022-08-26T05:09:38;10.90;;;4.20;;
8291;SDS011;4184;42.724;23.308;2022-08-26T05:12:06;10.77;;;4.30;;
8291;SDS011;4184;42.724;23.308;2022-08-26T05:14:34;9.70;;;4.83;;
8291;SDS011;4184;42.724;23.308;2022-08-26T05:17:03;14.30;;;4.90;;
8291;SDS011;4184;42.724;23.308;2022-08-26T05:19:31;12.47;;;5.20;;
8291;SDS011;4184;42.724;23.308;2022-08-26T05:21:58;11.17;;;5.10;;
8291;SDS011;4184;42.724;23.308;2022-08-26T05:24:26;10.83;;;5.17;;
8291;SDS011;4184;42.724;23.308;2022-08-26T05:26:54;12.77;;;5.33;;
8291;SDS011;4184;42.724;23.308;2022-08-26T05:29:22;9.33;;;4.80;;
8291;SDS011;4184;42.724;23.308;2022-08-26T05:31:50;9.13;;;5.87;;
8291;SDS011;4184;42.724;23.308;2022-08-26T05:34:19;9.83;;;4.80;;
8291;SDS011;4184;42.724;23.308;2022-08-26T05:36:47;9.20;;;4.93;;
8291;SDS011;4184;42.724;23.308;2022-08-26T05:39:15;10.10;;;4.30;;
8291;SDS011;4184;42.724;23.308;2022-08-26T05:41:42;10.73;;;4.77;;
8291;SDS011;4184;42.724;23.308;2022-08-26T05:44:11;8.90;;;5.23;;
8291;SDS011;4184;42.724;23.308;2022-08-26T05:46:43;11.37;;;4.60;;
8291;SDS011;4184;42.724;23.308;2022-08-26T05:49:12;10.87;;;5.37;;
8291;SDS011;4184;42.724;23.308;2022-08-26T05:51:42;7.37;;;4.87;;
8291;SDS011;4184;42.724;23.308;2022-08-26T05:54:10;10.17;;;4.73;;
8291;SDS011;4184;42.724;23.308;2022-08-26T05:56:38;7.63;;;5.23;;
8291;SDS011;4184;42.724;23.308;2022-08-26T05:59:10;7.03;;;4.80;;
8291;SDS011;4184;42.724;23.308;2022-08-26T06:01:40;9.73;;;4.63;;
8291;SDS011;4184;42.724;23.308;2022-08-26T06:04:08;9.43;;;4.90;;
8291;SDS011;4184;42.724;23.308;2022-08-26T06:06:37;9.73;;;4.40;;
8291;SDS011;4184;42.724;23.308;2022-08-26T06:09:07;16.70;;;5.40;;
8291;SDS011;4184;42.724;23.308;2022-08-26T06:11:35;9.57;;;4.53;;
8291;SDS011;4184;42.724;23.308;2022-08-26T06:14:04;6.50;;;4.30;;
8291;SDS011;4184;42.724;23.308;2022-08-26T06:16:34;8.63;;;4.30;;
8291;SDS011;4184;42.724;23.308;2022-08-26T06:19:04;9.47;;;4.40;;
8291;SDS011;4184;42.724;23.308;2022-08-26T06:21:33;6.53;;;4.27;;
8291;SDS011;4184;42.724;23.308;2022-08-26T06:24:05;8.60;;;4.47;;
8291;SDS011;4184;42.724;23.308;2022-08-26T06:26:53;9.50;;;4.17;;
8291;SDS011;4184;42.724;23.308;2022-08-26T06:29:23;7.87;;;4.43;;
8291;SDS011;4184;42.724;23.308;2022-08-26T06:31:51;9.67;;;4.50;;
8291;SDS011;4184;42.724;23.308;2022-08-26T06:34:20;7.10;;;4.17;;
8291;SDS011;4184;42.724;23.308;2022-08-26T06:36:47;5.97;;;4.47;;
8291;SDS011;4184;42.724;23.308;2022-08-26T06:39:16;11.30;;;4.77;;
8291;SDS011;4184;42.724;23.308;2022-08-26T06:41:44;9.53;;;4.33;;
8291;SDS011;4184;42.724;23.308;2022-08-26T06:44:13;8.03;;;4.30;;
8291;SDS011;4184;42.724;23.308;2022-08-26T06:46:41;6.70;;;4.37;;
8291;SDS011;4184;42.724;23.308;2022-08-26T06:49:09;7.23;;;4.17;;
8291;SDS011;4184;42.724;23.308;2022-08-26T06:51:37;8.43;;;4.20;;
8291;SDS011;4184;42.724;23.308;2022-08-26T06:54:06;7.53;;;4.10;;
8291;SDS011;4184;42.724;23.308;2022-08-26T06:56:36;7.53;;;4.00;;
8291;SDS011;4184;42.724;23.308;2022-08-26T06:59:06;9.83;;;4.20;;
8291;SDS011;4184;42.724;23.308;2022-08-26T07:01:36;8.43;;;4.07;;
8291;SDS011;4184;42.724;23.308;2022-08-26T07:04:08;7.67;;;4.30;;
8291;SDS011;4184;42.724;23.308;2022-08-26T07:06:36;8.83;;;3.90;;
8291;SDS011;4184;42.724;23.308;2022-08-26T07:09:05;5.40;;;3.70;;
8291;SDS011;4184;42.724;23.308;2022-08-26T07:11:36;5.83;;;3.47;;
8291;SDS011;4184;42.724;23.308;2022-08-26T07:14:04;4.60;;;3.30;;
8291;SDS011;4184;42.724;23.308;2022-08-26T07:16:33;8.87;;;3.87;;
8291;SDS011;4184;42.724;23.308;2022-08-26T07:19:00;5.43;;;3.53;;
8291;SDS011;4184;42.724;23.308;2022-08-26T07:21:30;5.10;;;3.43;;
8291;SDS011;4184;42.724;23.308;2022-08-26T07:23:58;5.63;;;3.50;;
8291;SDS011;4184;42.724;23.308;2022-08-26T07:26:26;4.83;;;3.33;;
8291;SDS011;4184;42.724;23.308;2022-08-26T07:28:57;5.93;;;3.80;;
8291;SDS011;4184;42.724;23.308;2022-08-26T07:31:25;5.10;;;3.43;;
8291;SDS011;4184;42.724;23.308;2022-08-26T07:33:54;5.17;;;3.33;;
8291;SDS011;4184;42.724;23.308;2022-08-26T07:36:24;4.53;;;4.00;;
8291;SDS011;4184;42.724;23.308;2022-08-26T07:38:53;4.50;;;3.60;;
8291;SDS011;4184;42.724;23.308;2022-08-26T07:41:22;4.33;;;3.27;;
8291;SDS011;4184;42.724;23.308;2022-08-26T07:43:50;5.63;;;3.53;;
8291;SDS011;4184;42.724;23.308;2022-08-26T07:46:20;4.07;;;3.50;;
8291;SDS011;4184;42.724;23.308;2022-08-26T07:48:48;5.30;;;3.27;;
8291;SDS011;4184;42.724;23.308;2022-08-26T07:51:18;4.60;;;3.70;;
8291;SDS011;4184;42.724;23.308;2022-08-26T07:53:47;4.57;;;3.23;;
8291;SDS011;4184;42.724;23.308;2022-08-26T07:56:15;7.40;;;4.00;;
8291;SDS011;4184;42.724;23.308;2022-08-26T07:58:42;6.00;;;3.80;;
8291;SDS011;4184;42.724;23.308;2022-08-26T08:01:10;4.47;;;3.80;;
8291;SDS011;4184;42.724;23.308;2022-08-26T08:03:39;4.80;;;3.47;;
8291;SDS011;4184;42.724;23.308;2022-08-26T08:06:07;3.37;;;2.97;;
8291;SDS011;4184;42.724;23.308;2022-08-26T08:08:34;4.90;;;3.20;;
8291;SDS011;4184;42.724;23.308;2022-08-26T08:11:04;7.17;;;3.43;;
8291;SDS011;4184;42.724;23.308;2022-08-26T08:13:32;4.93;;;3.30;;
8291;SDS011;4184;42.724;23.308;2022-08-26T08:15:59;6.77;;;3.60;;
8291;SDS011;4184;42.724;23.308;2022-08-26T08:18:27;6.37;;;3.13;;
8291;SDS011;4184;42.724;23.308;2022-08-26T08:20:56;8.83;;;3.83;;
8291;SDS011;4184;42.724;23.308;2022-08-26T08:23:27;4.33;;;2.77;;
8291;SDS011;4184;42.724;23.308;2022-08-26T08:25:58;7.17;;;3.90;;
8291;SDS011;4184;42.724;23.308;2022-08-26T08:28:26;3.57;;;2.93;;
8291;SDS011;4184;42.724;23.308;2022-08-26T08:30:54;4.13;;;2.73;;
8291;SDS011;4184;42.724;23.308;2022-08-26T08:33:22;5.17;;;3.10;;
8291;SDS011;4184;42.724;23.308;2022-08-26T08:35:50;7.03;;;3.30;;
8291;SDS011;4184;42.724;23.308;2022-08-26T08:38:20;7.53;;;3.63;;
8291;SDS011;4184;42.724;23.308;2022-08-26T08:40:48;7.83;;;3.80;;
8291;SDS011;4184;42.724;23.308;2022-08-26T08:43:16;5.33;;;3.30;;
8291;SDS011;4184;42.724;23.308;2022-08-26T08:45:57;3.40;;;2.90;;
8291;SDS011;4184;42.724;23.308;2022-08-26T08:48:29;4.13;;;2.90;;
8291;SDS011;4184;42.724;23.308;2022-08-26T08:51:02;3.47;;;2.77;;
8291;SDS011;4184;42.724;23.308;2022-08-26T08:53:37;3.90;;;2.87;;
8291;SDS011;4184;42.724;23.308;2022-08-26T08:56:09;4.03;;;2.83;;
8291;SDS011;4184;42.724;23.308;2022-08-26T08:58:45;3.00;;;2.70;;
8291;SDS011;4184;42.724;23.308;2022-08-26T09:01:23;3.43;;;2.50;;
8291;SDS011;4184;42.724;23.308;2022-08-26T09:04:00;3.77;;;3.07;;
8291;SDS011;4184;42.724;23.308;2022-08-26T09:06:43;4.70;;;2.93;;
8291;SDS011;4184;42.724;23.308;2022-08-26T09:09:15;6.37;;;3.50;;
8291;SDS011;4184;42.724;23.308;2022-08-26T09:11:49;5.43;;;3.07;;
8291;SDS011;4184;42.724;23.308;2022-08-26T09:14:17;8.00;;;3.37;;
8291;SDS011;4184;42.724;23.308;2022-08-26T09:16:45;6.33;;;3.30;;
8291;SDS011;4184;42.724;23.308;2022-08-26T09:19:19;4.53;;;2.90;;
8291;SDS011;4184;42.724;23.308;2022-08-26T09:21:54;4.30;;;2.80;;
8291;SDS011;4184;42.724;23.308;2022-08-26T09:24:24;5.87;;;3.13;;
8291;SDS011;4184;42.724;23.308;2022-08-26T09:26:52;6.20;;;3.50;;
8291;SDS011;4184;42.724;23.308;2022-08-26T09:29:23;7.27;;;3.47;;
8291;SDS011;4184;42.724;23.308;2022-08-26T09:31:51;5.57;;;2.87;;
8291;SDS011;4184;42.724;23.308;2022-08-26T09:34:36;6.40;;;3.10;;
8291;SDS011;4184;42.724;23.308;2022-08-26T09:37:31;6.27;;;3.67;;
8291;SDS011;4184;42.724;23.308;2022-08-26T09:40:13;6.27;;;3.07;;
8291;SDS011;4184;42.724;23.308;2022-08-26T09:43:00;5.40;;;3.27;;
8291;SDS011;4184;42.724;23.308;2022-08-26T09:45:32;5.90;;;3.20;;
8291;SDS011;4184;42.724;23.308;2022-08-26T09:48:01;4.90;;;3.13;;
8291;SDS011;4184;42.724;23.308;2022-08-26T09:50:31;4.10;;;2.80;;
8291;SDS011;4184;42.724;23.308;2022-08-26T09:53:05;5.20;;;2.60;;
8291;SDS011;4184;42.724;23.308;2022-08-26T09:55:41;5.43;;;3.00;;
8291;SDS011;4184;42.724;23.308;2022-08-26T09:58:12;4.27;;;3.07;;
8291;SDS011;4184;42.724;23.308;2022-08-26T10:00:41;5.03;;;3.37;;
8291;SDS011;4184;42.724;23.308;2022-08-26T10:03:21;3.83;;;3.10;;
8291;SDS011;4184;42.724;23.308;2022-08-26T10:05:56;3.17;;;2.73;;
8291;SDS011;4184;42.724;23.308;2022-08-26T10:08:27;3.10;;;2.67;;
8291;SDS011;4184;42.724;23.308;2022-08-26T10:10:59;3.80;;;2.63;;
8291;SDS011;4184;42.724;23.308;2022-08-26T10:13:31;5.93;;;3.40;;
8291;SDS011;4184;42.724;23.308;2022-08-26T10:16:02;7.20;;;3.23;;
8291;SDS011;4184;42.724;23.308;2022-08-26T10:18:36;6.00;;;2.97;;
8291;SDS011;4184;42.724;23.308;2022-08-26T10:21:08;6.50;;;2.97;;
8291;SDS011;4184;42.724;23.308;2022-08-26T10:23:43;4.03;;;3.07;;
8291;SDS011;4184;42.724;23.308;2022-08-26T10:26:16;4.20;;;2.40;;
8291;SDS011;4184;42.724;23.308;2022-08-26T10:28:51;4.23;;;2.90;;
8291;SDS011;4184;42.724;23.308;2022-08-26T10:31:24;3.50;;;3.00;;
8291;SDS011;4184;42.724;23.308;2022-08-26T10:33:54;5.20;;;3.27;;
8291;SDS011;4184;42.724;23.308;2022-08-26T10:36:22;4.47;;;3.00;;
8291;SDS011;4184;42.724;23.308;2022-08-26T10:39:12;3.47;;;3.00;;
8291;SDS011;4184;42.724;23.308;2022-08-26T10:41:46;3.73;;;2.80;;
8291;SDS011;4184;42.724;23.308;2022-08-26T10:44:18;5.00;;;3.57;;
8291;SDS011;4184;42.724;23.308;2022-08-26T10:46:51;4.73;;;3.10;;
8291;SDS011;4184;42.724;23.308;2022-08-26T10:49:23;4.60;;;3.50;;
8291;SDS011;4184;42.724;23.308;2022-08-26T10:51:52;4.23;;;3.33;;
8291;SDS011;4184;42.724;23.308;2022-08-26T10:54:27;3.50;;;3.20;;
8291;SDS011;4184;42.724;23.308;2022-08-26T10:57:06;3.40;;;3.10;;
8291;SDS011;4184;42.724;23.308;2022-08-26T10:59:51;5.83;;;3.47;;
8291;SDS011;4184;42.724;23.308;2022-08-26T11:02:27;4.72;;;3.33;;
8291;SDS011;4184;42.724;23.308;2022-08-26T11:05:01;3.77;;;3.00;;
8291;SDS011;4184;42.724;23.308;2022-08-26T11:07:31;4.13;;;3.10;;
8291;SDS011;4184;42.724;23.308;2022-08-26T11:10:03;5.10;;;3.47;;
8291;SDS011;4184;42.724;23.308;2022-08-26T11:12:46;5.60;;;3.40;;
8291;SDS011;4184;42.724;23.308;2022-08-26T11:18:40;4.10;;;3.50;;
8291;SDS011;4184;42.724;23.308;2022-08-26T11:30:37;4.40;;;3.23;;
8291;SDS011;4184;42.724;23.308;2022-08-26T11:39:22;3.40;;;3.10;;
8291;SDS011;4184;42.724;23.308;2022-08-26T11:41:57;3.27;;;2.97;;
8291;SDS011;4184;42.724;23.308;2022-08-26T11:44:28;3.70;;;3.00;;
8291;SDS011;4184;42.724;23.308;2022-08-26T11:47:05;4.00;;;3.40;;
8291;SDS011;4184;42.724;23.308;2022-08-26T11:49:35;3.73;;;3.00;;
8291;SDS011;4184;42.724;23.308;2022-08-26T11:52:07;5.53;;;3.30;;
8291;SDS011;4184;42.724;23.308;2022-08-26T11:57:27;4.03;;;3.30;;
8291;SDS011;4184;42.724;23.308;2022-08-26T11:59:57;5.73;;;3.50;;
8291;SDS011;4184;42.724;23.308;2022-08-26T12:02:27;4.27;;;3.50;;
8291;SDS011;4184;42.724;23.308;2022-08-26T12:04:55;4.83;;;3.30;;
8291;SDS011;4184;42.724;23.308;2022-08-26T12:07:24;3.97;;;3.57;;
8291;SDS011;4184;42.724;23.308;2022-08-26T12:09:55;4.53;;;3.43;;
8291;SDS011;4184;42.724;23.308;2022-08-26T12:12:25;4.17;;;3.33;;
8291;SDS011;4184;42.724;23.308;2022-08-26T12:15:05;4.00;;;3.20;;
8291;SDS011;4184;42.724;23.308;2022-08-26T12:17:40;4.70;;;3.13;;
8291;SDS011;4184;42.724;23.308;2022-08-26T12:20:16;4.93;;;3.20;;
8291;SDS011;4184;42.724;23.308;2022-08-26T12:23:09;3.10;;;2.77;;
8291;SDS011;4184;42.724;23.308;2022-08-26T12:25:48;4.83;;;2.83;;
8291;SDS011;4184;42.724;23.308;2022-08-26T12:28:17;4.93;;;2.80;;
8291;SDS011;4184;42.724;23.308;2022-08-26T12:30:57;4.37;;;3.10;;
8291;SDS011;4184;42.724;23.308;2022-08-26T12:33:30;3.07;;;2.70;;
8291;SDS011;4184;42.724;23.308;2022-08-26T12:36:00;4.83;;;2.90;;
8291;SDS011;4184;42.724;23.308;2022-08-26T12:38:29;3.83;;;2.80;;
8291;SDS011;4184;42.724;23.308;2022-08-26T12:40:58;6.33;;;3.10;;
8291;SDS011;4184;42.724;23.308;2022-08-26T12:43:36;4.37;;;2.90;;
8291;SDS011;4184;42.724;23.308;2022-08-26T12:46:06;8.93;;;3.30;;
8291;SDS011;4184;42.724;23.308;2022-08-26T12:48:37;3.33;;;3.00;;
8291;SDS011;4184;42.724;23.308;2022-08-26T12:51:14;4.20;;;3.10;;
8291;SDS011;4184;42.724;23.308;2022-08-26T12:53:48;4.83;;;2.83;;
8291;SDS011;4184;42.724;23.308;2022-08-26T12:56:26;5.47;;;3.33;;
8291;SDS011;4184;42.724;23.308;2022-08-26T12:59:00;7.63;;;3.30;;
8291;SDS011;4184;42.724;23.308;2022-08-26T13:01:35;3.50;;;2.90;;
8291;SDS011;4184;42.724;23.308;2022-08-26T13:04:08;3.73;;;2.80;;
8291;SDS011;4184;42.724;23.308;2022-08-26T13:07:13;5.90;;;3.00;;
8291;SDS011;4184;42.724;23.308;2022-08-26T13:09:45;6.20;;;3.13;;
8291;SDS011;4184;42.724;23.308;2022-08-26T13:12:21;3.00;;;2.70;;
8291;SDS011;4184;42.724;23.308;2022-08-26T13:14:54;4.30;;;3.40;;
8291;SDS011;4184;42.724;23.308;2022-08-26T13:17:23;4.73;;;2.67;;
8291;SDS011;4184;42.724;23.308;2022-08-26T13:19:53;3.67;;;2.83;;
8291;SDS011;4184;42.724;23.308;2022-08-26T13:22:22;4.93;;;3.37;;
8291;SDS011;4184;42.724;23.308;2022-08-26T13:24:51;4.00;;;2.80;;
8291;SDS011;4184;42.724;23.308;2022-08-26T13:27:22;4.10;;;2.77;;
8291;SDS011;4184;42.724;23.308;2022-08-26T13:29:53;4.50;;;2.77;;
8291;SDS011;4184;42.724;23.308;2022-08-26T13:32:23;3.90;;;2.93;;
8291;SDS011;4184;42.724;23.308;2022-08-26T13:34:55;5.83;;;2.90;;
8291;SDS011;4184;42.724;23.308;2022-08-26T13:37:23;3.77;;;2.60;;
8291;SDS011;4184;42.724;23.308;2022-08-26T13:39:51;3.30;;;2.27;;
8291;SDS011;4184;42.724;23.308;2022-08-26T13:42:19;3.93;;;2.50;;
8291;SDS011;4184;42.724;23.308;2022-08-26T13:44:47;4.27;;;2.77;;
8291;SDS011;4184;42.724;23.308;2022-08-26T13:47:17;6.00;;;2.77;;
8291;SDS011;4184;42.724;23.308;2022-08-26T13:49:45;5.30;;;2.90;;
8291;SDS011;4184;42.724;23.308;2022-08-26T13:52:15;4.90;;;2.67;;
8291;SDS011;4184;42.724;23.308;2022-08-26T13:54:42;2.57;;;2.37;;
8291;SDS011;4184;42.724;23.308;2022-08-26T13:57:10;4.10;;;2.60;;
8291;SDS011;4184;42.724;23.308;2022-08-26T13:59:38;7.40;;;2.53;;
8291;SDS011;4184;42.724;23.308;2022-08-26T14:02:05;6.10;;;2.87;;
8291;SDS011;4184;42.724;23.308;2022-08-26T14:04:33;3.37;;;2.20;;
8291;SDS011;4184;42.724;23.308;2022-08-26T14:07:01;2.97;;;2.50;;
8291;SDS011;4184;42.724;23.308;2022-08-26T14:09:32;4.30;;;2.30;;
8291;SDS011;4184;42.724;23.308;2022-08-26T14:12:00;2.73;;;2.10;;
8291;SDS011;4184;42.724;23.308;2022-08-26T14:14:28;4.03;;;2.70;;
8291;SDS011;4184;42.724;23.308;2022-08-26T14:16:56;3.83;;;2.80;;
8291;SDS011;4184;42.724;23.308;2022-08-26T14:19:26;2.87;;;2.57;;
8291;SDS011;4184;42.724;23.308;2022-08-26T14:21:55;4.10;;;2.40;;
8291;SDS011;4184;42.724;23.308;2022-08-26T14:24:24;6.80;;;3.13;;
8291;SDS011;4184;42.724;23.308;2022-08-26T14:26:54;4.93;;;3.00;;
8291;SDS011;4184;42.724;23.308;2022-08-26T14:29:21;4.53;;;2.30;;
8291;SDS011;4184;42.724;23.308;2022-08-26T14:31:49;3.87;;;2.90;;
8291;SDS011;4184;42.724;23.308;2022-08-26T14:34:16;3.77;;;2.40;;
8291;SDS011;4184;42.724;23.308;2022-08-26T14:36:44;3.77;;;2.57;;
8291;SDS011;4184;42.724;23.308;2022-08-26T14:39:12;3.10;;;2.40;;
8291;SDS011;4184;42.724;23.308;2022-08-26T14:41:41;5.53;;;2.63;;
8291;SDS011;4184;42.724;23.308;2022-08-26T14:44:13;5.30;;;2.60;;
8291;SDS011;4184;42.724;23.308;2022-08-26T14:46:42;4.97;;;2.70;;
8291;SDS011;4184;42.724;23.308;2022-08-26T14:49:11;3.50;;;2.50;;
8291;SDS011;4184;42.724;23.308;2022-08-26T14:51:39;3.40;;;2.60;;
8291;SDS011;4184;42.724;23.308;2022-08-26T14:54:07;2.90;;;2.53;;
8291;SDS011;4184;42.724;23.308;2022-08-26T14:56:38;3.33;;;2.13;;
8291;SDS011;4184;42.724;23.308;2022-08-26T14:59:09;4.20;;;2.33;;
8291;SDS011;4184;42.724;23.308;2022-08-26T15:01:39;4.33;;;2.50;;
8291;SDS011;4184;42.724;23.308;2022-08-26T15:04:06;4.07;;;2.60;;
8291;SDS011;4184;42.724;23.308;2022-08-26T15:06:34;3.07;;;2.30;;
8291;SDS011;4184;42.724;23.308;2022-08-26T15:09:02;2.67;;;2.00;;
8291;SDS011;4184;42.724;23.308;2022-08-26T15:11:31;3.03;;;2.50;;
8291;SDS011;4184;42.724;23.308;2022-08-26T15:13:59;4.23;;;2.60;;
8291;SDS011;4184;42.724;23.308;2022-08-26T15:16:27;2.83;;;2.40;;
8291;SDS011;4184;42.724;23.308;2022-08-26T15:18:56;3.67;;;2.40;;
8291;SDS011;4184;42.724;23.308;2022-08-26T15:21:24;5.07;;;2.50;;
8291;SDS011;4184;42.724;23.308;2022-08-26T15:23:52;3.27;;;2.40;;
8291;SDS011;4184;42.724;23.308;2022-08-26T15:26:20;3.27;;;2.30;;
8291;SDS011;4184;42.724;23.308;2022-08-26T15:28:48;5.20;;;2.90;;
8291;SDS011;4184;42.724;23.308;2022-08-26T15:31:17;2.60;;;2.30;;
8291;SDS011;4184;42.724;23.308;2022-08-26T15:33:50;2.70;;;2.30;;
8291;SDS011;4184;42.724;23.308;2022-08-26T15:36:19;2.60;;;2.40;;
8291;SDS011;4184;42.724;23.308;2022-08-26T15:38:49;2.50;;;2.30;;
8291;SDS011;4184;42.724;23.308;2022-08-26T15:41:17;4.93;;;2.27;;